Newington, Connecticut
Current Conditions -  °F | °C
As of 10:53 AM on Friday 21 Nov 2014 (Local Time) from KHFD Reporting Station
Scattered Clouds Scattered Clouds  
Wind Chill: -7°   Ceiling: Unl
Heat Index: -1°   Visibility: 10mi
Dew Point: -12°   Wind: 17mph
Humidity: 42%   Direction: 310°NW
Pressure: 30.21"   Gusts: 25mph
Location:  41.7°N, 72.73°W
Report Text: KHFD 211553Z 31015G22KT 10SM SCT055 M01/M12 A3021 RMK AO2 SLP230 T10061122
Loading
Personal Weather Stations






























Interactive Weather Map New forecast layout! Learn more

10-Day Weather Forecast

Advertisements
Track Severe Weather on mobile